sensor_id;sensor_type;location;lat;lon;timestamp;pressure;altitude;pressure_sealevel;temperature;humidity
31761;BME280;18335;51.486;7.562;2023-01-28T00:00:16;101372.00;;;1.96;100.00
31761;BME280;18335;51.486;7.562;2023-01-28T00:02:43;101372.72;;;2.00;100.00
31761;BME280;18335;51.486;7.562;2023-01-28T00:05:10;101366.66;;;2.12;100.00
31761;BME280;18335;51.486;7.562;2023-01-28T00:07:36;101373.06;;;2.09;100.00
31761;BME280;18335;51.486;7.562;2023-01-28T00:10:04;101371.56;;;2.04;100.00
31761;BME280;18335;51.486;7.562;2023-01-28T00:12:30;101375.03;;;1.90;100.00
31761;BME280;18335;51.486;7.562;2023-01-28T00:14:57;101376.34;;;1.99;100.00
31761;BME280;18335;51.486;7.562;2023-01-28T00:17:25;101371.41;;;2.07;100.00
31761;BME280;18335;51.486;7.562;2023-01-28T00:19:52;101366.50;;;2.15;100.00
31761;BME280;18335;51.486;7.562;2023-01-28T00:22:18;101364.31;;;2.21;100.00
31761;BME280;18335;51.486;7.562;2023-01-28T00:24:46;101362.25;;;2.27;100.00
31761;BME280;18335;51.486;7.562;2023-01-28T00:27:12;101365.44;;;2.17;100.00
31761;BME280;18335;51.486;7.562;2023-01-28T00:29:39;101362.13;;;2.28;100.00
31761;BME280;18335;51.486;7.562;2023-01-28T00:32:06;101372.31;;;2.23;100.00
31761;BME280;18335;51.486;7.562;2023-01-28T00:34:34;101364.50;;;2.34;100.00
31761;BME280;18335;51.486;7.562;2023-01-28T00:37:01;101361.03;;;2.32;100.00
31761;BME280;18335;51.486;7.562;2023-01-28T00:39:30;101361.09;;;2.31;100.00
31761;BME280;18335;51.486;7.562;2023-01-28T00:41:59;101366.56;;;2.13;100.00
31761;BME280;18335;51.486;7.562;2023-01-28T00:44:27;101366.56;;;2.13;100.00
31761;BME280;18335;51.486;7.562;2023-01-28T00:46:53;101365.22;;;1.89;100.00
31761;BME280;18335;51.486;7.562;2023-01-28T00:49:21;101373.81;;;1.96;100.00
31761;BME280;18335;51.486;7.562;2023-01-28T00:51:49;101360.84;;;2.19;100.00
31761;BME280;18335;51.486;7.562;2023-01-28T00:54:16;101363.47;;;2.21;100.00
31761;BME280;18335;51.486;7.562;2023-01-28T00:56:43;101376.66;;;2.26;100.00
31761;BME280;18335;51.486;7.562;2023-01-28T00:59:09;101370.69;;;2.03;100.00
31761;BME280;18335;51.486;7.562;2023-01-28T01:01:36;101377.44;;;2.12;100.00
31761;BME280;18335;51.486;7.562;2023-01-28T01:04:03;101387.72;;;2.04;100.00
31761;BME280;18335;51.486;7.562;2023-01-28T01:06:33;101386.34;;;1.97;100.00
31761;BME280;18335;51.486;7.562;2023-01-28T01:09:02;101385.28;;;1.99;100.00
31761;BME280;18335;51.486;7.562;2023-01-28T01:11:29;101382.13;;;1.76;100.00
31761;BME280;18335;51.486;7.562;2023-01-28T01:13:58;101380.13;;;1.79;100.00
31761;BME280;18335;51.486;7.562;2023-01-28T01:16:27;101379.22;;;1.96;100.00
31761;BME280;18335;51.486;7.562;2023-01-28T01:18:55;101367.41;;;1.98;100.00
31761;BME280;18335;51.486;7.562;2023-01-28T01:21:23;101380.09;;;1.96;100.00
31761;BME280;18335;51.486;7.562;2023-01-28T01:23:51;101373.22;;;2.06;100.00
31761;BME280;18335;51.486;7.562;2023-01-28T01:26:20;101375.75;;;2.09;100.00
31761;BME280;18335;51.486;7.562;2023-01-28T01:28:47;101375.75;;;1.94;100.00
31761;BME280;18335;51.486;7.562;2023-01-28T01:31:15;101383.81;;;1.94;100.00
31761;BME280;18335;51.486;7.562;2023-01-28T01:33:44;101386.84;;;1.88;100.00
31761;BME280;18335;51.486;7.562;2023-01-28T01:36:12;101380.56;;;1.87;100.00
31761;BME280;18335;51.486;7.562;2023-01-28T01:38:39;101383.00;;;1.76;100.00
31761;BME280;18335;51.486;7.562;2023-01-28T01:41:24;101386.94;;;1.69;100.00
31761;BME280;18335;51.486;7.562;2023-01-28T01:43:53;101382.66;;;1.82;100.00
31761;BME280;18335;51.486;7.562;2023-01-28T01:46:24;101382.47;;;1.85;100.00
31761;BME280;18335;51.486;7.562;2023-01-28T01:48:52;101384.22;;;1.86;100.00
31761;BME280;18335;51.486;7.562;2023-01-28T01:51:24;101381.72;;;1.66;100.00
31761;BME280;18335;51.486;7.562;2023-01-28T01:53:54;101397.81;;;1.83;100.00
31761;BME280;18335;51.486;7.562;2023-01-28T01:56:27;101391.50;;;1.84;100.00
31761;BME280;18335;51.486;7.562;2023-01-28T01:58:56;101387.69;;;1.88;100.00
31761;BME280;18335;51.486;7.562;2023-01-28T02:01:26;101400.84;;;1.77;100.00
31761;BME280;18335;51.486;7.562;2023-01-28T02:04:01;101393.47;;;1.81;100.00
31761;BME280;18335;51.486;7.562;2023-01-28T02:06:31;101390.84;;;1.96;100.00
31761;BME280;18335;51.486;7.562;2023-01-28T02:08:58;101401.56;;;1.81;100.00
31761;BME280;18335;51.486;7.562;2023-01-28T02:11:29;101397.53;;;1.72;100.00
31761;BME280;18335;51.486;7.562;2023-01-28T02:14:01;101405.94;;;1.66;100.00
31761;BME280;18335;51.486;7.562;2023-01-28T02:16:30;101402.59;;;1.78;100.00
31761;BME280;18335;51.486;7.562;2023-01-28T02:18:57;101402.28;;;1.84;100.00
31761;BME280;18335;51.486;7.562;2023-01-28T02:21:50;101412.31;;;1.81;100.00
31761;BME280;18335;51.486;7.562;2023-01-28T02:24:39;101411.06;;;1.71;100.00
31761;BME280;18335;51.486;7.562;2023-01-28T02:27:19;101404.38;;;1.45;100.00
31761;BME280;18335;51.486;7.562;2023-01-28T02:29:55;101406.75;;;1.34;100.00
31761;BME280;18335;51.486;7.562;2023-01-28T02:32:28;101410.38;;;1.50;100.00
31761;BME280;18335;51.486;7.562;2023-01-28T02:35:02;101417.81;;;1.45;100.00
31761;BME280;18335;51.486;7.562;2023-01-28T02:37:36;101418.28;;;1.36;100.00
31761;BME280;18335;51.486;7.562;2023-01-28T02:40:08;101413.53;;;1.41;100.00
31761;BME280;18335;51.486;7.562;2023-01-28T02:42:37;101422.88;;;1.34;100.00
31761;BME280;18335;51.486;7.562;2023-01-28T02:45:14;101417.19;;;1.40;100.00
31761;BME280;18335;51.486;7.562;2023-01-28T02:47:42;101420.66;;;1.42;100.00
31761;BME280;18335;51.486;7.562;2023-01-28T02:50:25;101418.22;;;1.37;100.00
31761;BME280;18335;51.486;7.562;2023-01-28T02:53:02;101416.88;;;1.46;100.00
31761;BME280;18335;51.486;7.562;2023-01-28T02:55:52;101424.28;;;1.41;100.00
31761;BME280;18335;51.486;7.562;2023-01-28T02:58:26;101411.50;;;1.46;100.00
31761;BME280;18335;51.486;7.562;2023-01-28T03:01:02;101417.03;;;1.43;100.00
31761;BME280;18335;51.486;7.562;2023-01-28T03:03:39;101416.88;;;1.46;100.00
31761;BME280;18335;51.486;7.562;2023-01-28T03:06:13;101409.75;;;1.45;100.00
31761;BME280;18335;51.486;7.562;2023-01-28T03:08:46;101414.72;;;1.35;100.00
31761;BME280;18335;51.486;7.562;2023-01-28T03:11:33;101411.81;;;1.40;100.00
31761;BME280;18335;51.486;7.562;2023-01-28T03:14:19;101411.97;;;1.37;100.00
31761;BME280;18335;51.486;7.562;2023-01-28T03:17:09;101409.13;;;1.40;100.00
31761;BME280;18335;51.486;7.562;2023-01-28T03:19:56;101410.53;;;1.47;100.00
31761;BME280;18335;51.486;7.562;2023-01-28T03:22:41;101402.09;;;1.37;100.00
31761;BME280;18335;51.486;7.562;2023-01-28T03:25:28;101400.66;;;1.30;100.00
31761;BME280;18335;51.486;7.562;2023-01-28T03:28:16;101394.50;;;1.28;100.00
31761;BME280;18335;51.486;7.562;2023-01-28T03:31:05;101393.22;;;1.35;100.00
31761;BME280;18335;51.486;7.562;2023-01-28T03:33:56;101394.66;;;1.42;100.00
31761;BME280;18335;51.486;7.562;2023-01-28T03:36:42;101388.78;;;1.51;100.00
31761;BME280;18335;51.486;7.562;2023-01-28T03:39:39;101390.50;;;1.52;100.00
31761;BME280;18335;51.486;7.562;2023-01-28T03:42:10;101393.13;;;1.54;100.00
31761;BME280;18335;51.486;7.562;2023-01-28T03:44:51;101391.38;;;1.53;100.00
31761;BME280;18335;51.486;7.562;2023-01-28T03:47:20;101402.16;;;1.36;100.00
31761;BME280;18335;51.486;7.562;2023-01-28T03:49:49;101410.69;;;1.27;100.00
31761;BME280;18335;51.486;7.562;2023-01-28T03:52:20;101404.69;;;1.39;100.00
31761;BME280;18335;51.486;7.562;2023-01-28T03:54:48;101409.44;;;1.34;100.00
31761;BME280;18335;51.486;7.562;2023-01-28T03:57:17;101421.28;;;1.30;100.00
31761;BME280;18335;51.486;7.562;2023-01-28T03:59:44;101417.81;;;1.28;100.00
31761;BME280;18335;51.486;7.562;2023-01-28T04:02:15;101408.63;;;1.32;100.00
31761;BME280;18335;51.486;7.562;2023-01-28T04:04:42;101413.81;;;1.00;100.00
31761;BME280;18335;51.486;7.562;2023-01-28T04:07:12;101413.53;;;1.06;100.00
31761;BME280;18335;51.486;7.562;2023-01-28T04:09:58;101412.16;;;0.98;100.00
31761;BME280;18335;51.486;7.562;2023-01-28T04:12:46;101417.16;;;1.05;100.00
31761;BME280;18335;51.486;7.562;2023-01-28T04:15:15;101417.88;;;1.09;100.00
31761;BME280;18335;51.486;7.562;2023-01-28T04:17:44;101417.41;;;1.18;100.00
31761;BME280;18335;51.486;7.562;2023-01-28T04:20:14;101416.94;;;1.27;100.00
31761;BME280;18335;51.486;7.562;2023-01-28T04:22:42;101429.34;;;1.13;100.00
31761;BME280;18335;51.486;7.562;2023-01-28T04:25:10;101423.56;;;1.20;100.00
31761;BME280;18335;51.486;7.562;2023-01-28T04:27:37;101419.53;;;1.11;100.00
31761;BME280;18335;51.486;7.562;2023-01-28T04:30:14;101418.44;;;1.16;100.00
31761;BME280;18335;51.486;7.562;2023-01-28T04:32:47;101427.56;;;0.94;100.00
31761;BME280;18335;51.486;7.562;2023-01-28T04:35:33;101417.44;;;0.99;100.00
31761;BME280;18335;51.486;7.562;2023-01-28T04:38:09;101422.50;;;1.05;100.00
31761;BME280;18335;51.486;7.562;2023-01-28T04:40:48;101426.72;;;1.11;100.00
31761;BME280;18335;51.486;7.562;2023-01-28T04:43:24;101426.78;;;0.92;100.00
31761;BME280;18335;51.486;7.562;2023-01-28T04:45:58;101433.50;;;1.01;100.00
31761;BME280;18335;51.486;7.562;2023-01-28T04:48:31;101429.94;;;1.00;100.00
31761;BME280;18335;51.486;7.562;2023-01-28T04:51:19;101435.91;;;1.07;100.00
31761;BME280;18335;51.486;7.562;2023-01-28T04:54:09;101445.84;;;1.05;100.00
31761;BME280;18335;51.486;7.562;2023-01-28T04:56:36;101437.72;;;1.06;100.00
31761;BME280;18335;51.486;7.562;2023-01-28T04:59:03;101444.09;;;1.04;100.00
31761;BME280;18335;51.486;7.562;2023-01-28T05:01:31;101444.47;;;0.96;100.00
31761;BME280;18335;51.486;7.562;2023-01-28T05:03:58;101446.88;;;0.84;100.00
31761;BME280;18335;51.486;7.562;2023-01-28T05:06:29;101445.22;;;0.81;100.00
31761;BME280;18335;51.486;7.562;2023-01-28T05:09:00;101440.69;;;1.00;100.00
31761;BME280;18335;51.486;7.562;2023-01-28T05:11:30;101431.56;;;1.04;100.00
31761;BME280;18335;51.486;7.562;2023-01-28T05:14:01;101436.44;;;1.13;100.00
31761;BME280;18335;51.486;7.562;2023-01-28T05:16:33;101423.69;;;1.00;100.00
31761;BME280;18335;51.486;7.562;2023-01-28T05:19:02;101435.34;;;0.82;100.00
31761;BME280;18335;51.486;7.562;2023-01-28T05:21:34;101434.19;;;0.87;100.00
31761;BME280;18335;51.486;7.562;2023-01-28T05:24:04;101439.34;;;0.92;100.00
31761;BME280;18335;51.486;7.562;2023-01-28T05:26:33;101432.69;;;0.99;100.00
31761;BME280;18335;51.486;7.562;2023-01-28T05:29:02;101435.47;;;0.97;100.00
31761;BME280;18335;51.486;7.562;2023-01-28T05:31:30;101435.06;;;0.69;100.00
31761;BME280;18335;51.486;7.562;2023-01-28T05:33:58;101445.22;;;0.81;100.00
31761;BME280;18335;51.486;7.562;2023-01-28T05:36:25;101451.63;;;0.60;100.00
31761;BME280;18335;51.486;7.562;2023-01-28T05:38:53;101443.34;;;0.46;100.00
31761;BME280;18335;51.486;7.562;2023-01-28T05:41:20;101448.59;;;0.49;100.00
31761;BME280;18335;51.486;7.562;2023-01-28T05:43:55;101453.59;;;0.38;100.00
31761;BME280;18335;51.486;7.562;2023-01-28T05:46:35;101460.69;;;0.39;100.00
31761;BME280;18335;51.486;7.562;2023-01-28T05:49:06;101464.69;;;0.49;100.00
31761;BME280;18335;51.486;7.562;2023-01-28T05:52:08;101453.66;;;0.36;100.00
31761;BME280;18335;51.486;7.562;2023-01-28T05:54:35;101460.91;;;0.34;100.00
31761;BME280;18335;51.486;7.562;2023-01-28T05:57:02;101468.91;;;0.36;100.00
31761;BME280;18335;51.486;7.562;2023-01-28T05:59:31;101473.03;;;0.43;100.00
31761;BME280;18335;51.486;7.562;2023-01-28T06:01:58;101482.09;;;0.40;100.00
31761;BME280;18335;51.486;7.562;2023-01-28T06:04:25;101484.41;;;0.48;100.00
31761;BME280;18335;51.486;7.562;2023-01-28T06:06:51;101479.50;;;0.76;100.00
31761;BME280;18335;51.486;7.562;2023-01-28T06:09:21;101471.19;;;0.99;100.00
31761;BME280;18335;51.486;7.562;2023-01-28T06:11:50;101470.56;;;0.94;100.00
31761;BME280;18335;51.486;7.562;2023-01-28T06:14:17;101478.31;;;1.00;100.00
31761;BME280;18335;51.486;7.562;2023-01-28T06:17:05;101479.09;;;1.02;100.00
31761;BME280;18335;51.486;7.562;2023-01-28T06:19:55;101473.09;;;0.97;100.00
31761;BME280;18335;51.486;7.562;2023-01-28T06:22:22;101471.56;;;1.10;100.00
31761;BME280;18335;51.486;7.562;2023-01-28T06:24:49;101476.41;;;1.02;100.00
31761;BME280;18335;51.486;7.562;2023-01-28T06:27:16;101473.59;;;1.23;100.00
31761;BME280;18335;51.486;7.562;2023-01-28T06:29:43;101479.81;;;1.25;100.00
31761;BME280;18335;51.486;7.562;2023-01-28T06:32:11;101480.81;;;0.86;100.00
31761;BME280;18335;51.486;7.562;2023-01-28T06:34:37;101474.31;;;0.90;100.00
31761;BME280;18335;51.486;7.562;2023-01-28T06:37:04;101473.31;;;0.93;100.00
31761;BME280;18335;51.486;7.562;2023-01-28T06:39:31;101481.16;;;0.97;100.00
31761;BME280;18335;51.486;7.562;2023-01-28T06:41:58;101475.59;;;0.83;100.00
31761;BME280;18335;51.486;7.562;2023-01-28T06:44:25;101473.13;;;1.15;100.00
31761;BME280;18335;51.486;7.562;2023-01-28T06:46:52;101473.69;;;0.85;100.00
31761;BME280;18335;51.486;7.562;2023-01-28T06:49:20;101475.00;;;0.95;100.00
31761;BME280;18335;51.486;7.562;2023-01-28T06:51:47;101476.72;;;0.96;100.00
31761;BME280;18335;51.486;7.562;2023-01-28T06:54:14;101480.53;;;0.92;100.00
31761;BME280;18335;51.486;7.562;2023-01-28T06:56:41;101480.25;;;1.16;100.00
31761;BME280;18335;51.486;7.562;2023-01-28T06:59:08;101473.59;;;1.23;100.00
31761;BME280;18335;51.486;7.562;2023-01-28T07:01:35;101474.56;;;1.22;100.00
31761;BME280;18335;51.486;7.562;2023-01-28T07:04:02;101486.34;;;1.19;100.00
31761;BME280;18335;51.486;7.562;2023-01-28T07:06:30;101486.72;;;1.11;100.00
31761;BME280;18335;51.486;7.562;2023-01-28T07:08:57;101465.69;;;1.20;100.00
31761;BME280;18335;51.486;7.562;2023-01-28T07:11:24;101465.94;;;1.15;100.00
31761;BME280;18335;51.486;7.562;2023-01-28T07:13:51;101458.59;;;1.19;100.00
31761;BME280;18335;51.486;7.562;2023-01-28T07:16:17;101468.00;;;1.10;100.00
31761;BME280;18335;51.486;7.562;2023-01-28T07:18:44;101465.06;;;1.15;100.00
31761;BME280;18335;51.486;7.562;2023-01-28T07:21:11;101465.78;;;1.18;100.00
31761;BME280;18335;51.486;7.562;2023-01-28T07:23:39;101464.63;;;1.05;100.00
31761;BME280;18335;51.486;7.562;2023-01-28T07:26:05;101469.66;;;1.13;100.00
31761;BME280;18335;51.486;7.562;2023-01-28T07:28:32;101476.41;;;1.02;100.00
31761;BME280;18335;51.486;7.562;2023-01-28T07:30:59;101479.25;;;0.99;100.00
31761;BME280;18335;51.486;7.562;2023-01-28T07:33:26;101470.75;;;1.08;100.00
31761;BME280;18335;51.486;7.562;2023-01-28T07:35:52;101470.91;;;1.05;100.00
31761;BME280;18335;51.486;7.562;2023-01-28T07:38:19;101470.50;;;0.77;100.00
31761;BME280;18335;51.486;7.562;2023-01-28T07:40:47;101483.00;;;0.60;100.00
31761;BME280;18335;51.486;7.562;2023-01-28T07:43:14;101485.75;;;0.58;100.00
31761;BME280;18335;51.486;7.562;2023-01-28T07:45:41;101475.00;;;0.58;100.00
31761;BME280;18335;51.486;7.562;2023-01-28T07:48:10;101468.25;;;0.68;100.00
31761;BME280;18335;51.486;7.562;2023-01-28T07:50:37;101479.78;;;0.51;100.00
31761;BME280;18335;51.486;7.562;2023-01-28T07:53:06;101483.84;;;0.60;100.00
31761;BME280;18335;51.486;7.562;2023-01-28T07:55:33;101482.69;;;0.84;100.00
31761;BME280;18335;51.486;7.562;2023-01-28T07:58:03;101491.41;;;0.89;100.00
31761;BME280;18335;51.486;7.562;2023-01-28T08:00:32;101493.66;;;0.98;100.00
31761;BME280;18335;51.486;7.562;2023-01-28T08:03:01;101497.91;;;1.02;100.00
31761;BME280;18335;51.486;7.562;2023-01-28T08:05:35;101492.94;;;0.95;100.00
31761;BME280;18335;51.486;7.562;2023-01-28T08:08:06;101493.00;;;0.93;100.00
31761;BME280;18335;51.486;7.562;2023-01-28T08:10:32;101497.28;;;0.97;100.00
31761;BME280;18335;51.486;7.562;2023-01-28T08:12:59;101503.44;;;0.99;100.00
31761;BME280;18335;51.486;7.562;2023-01-28T08:15:28;101493.22;;;1.07;100.00
31761;BME280;18335;51.486;7.562;2023-01-28T08:17:55;101499.81;;;1.19;100.00
31761;BME280;18335;51.486;7.562;2023-01-28T08:20:23;101513.09;;;1.22;100.00
31761;BME280;18335;51.486;7.562;2023-01-28T08:22:50;101523.63;;;1.08;100.00
31761;BME280;18335;51.486;7.562;2023-01-28T08:25:17;101531.91;;;0.66;100.00
31761;BME280;18335;51.486;7.562;2023-01-28T08:27:44;101537.28;;;0.85;100.00
31761;BME280;18335;51.486;7.562;2023-01-28T08:30:11;101535.19;;;1.10;100.00
31761;BME280;18335;51.486;7.562;2023-01-28T08:32:39;101529.56;;;1.15;100.00
31761;BME280;18335;51.486;7.562;2023-01-28T08:35:07;101530.84;;;1.07;100.00
31761;BME280;18335;51.486;7.562;2023-01-28T08:37:33;101523.91;;;1.21;100.00
31761;BME280;18335;51.486;7.562;2023-01-28T08:40:00;101537.00;;;1.09;100.00
31761;BME280;18335;51.486;7.562;2023-01-28T08:42:27;101539.72;;;1.27;100.00
31761;BME280;18335;51.486;7.562;2023-01-28T08:44:54;101547.19;;;1.39;100.00
31761;BME280;18335;51.486;7.562;2023-01-28T08:47:20;101538.97;;;1.42;100.00
31761;BME280;18335;51.486;7.562;2023-01-28T08:49:48;101552.56;;;1.39;100.00
31761;BME280;18335;51.486;7.562;2023-01-28T08:52:15;101563.28;;;1.22;100.00
31761;BME280;18335;51.486;7.562;2023-01-28T08:54:42;101564.91;;;1.07;100.00
31761;BME280;18335;51.486;7.562;2023-01-28T08:57:09;101569.41;;;1.06;100.00
31761;BME280;18335;51.486;7.562;2023-01-28T08:59:35;101579.78;;;0.95;100.00
31761;BME280;18335;51.486;7.562;2023-01-28T09:02:05;101583.75;;;0.68;100.00
31761;BME280;18335;51.486;7.562;2023-01-28T09:04:32;101578.81;;;0.78;100.00
31761;BME280;18335;51.486;7.562;2023-01-28T09:07:00;101583.91;;;1.02;100.00
31761;BME280;18335;51.486;7.562;2023-01-28T09:09:26;101597.28;;;1.23;100.00
31761;BME280;18335;51.486;7.562;2023-01-28T09:11:53;101603.25;;;0.92;100.00
31761;BME280;18335;51.486;7.562;2023-01-28T09:14:20;101600.91;;;0.84;100.00
31761;BME280;18335;51.486;7.562;2023-01-28T09:16:46;101601.78;;;0.85;100.00
31761;BME280;18335;51.486;7.562;2023-01-28T09:19:13;101598.81;;;1.09;100.00
31761;BME280;18335;51.486;7.562;2023-01-28T09:21:40;101597.50;;;0.99;100.00
31761;BME280;18335;51.486;7.562;2023-01-28T09:24:10;101597.63;;;0.96;100.00
31761;BME280;18335;51.486;7.562;2023-01-28T09:26:37;101599.16;;;1.02;100.00
31761;BME280;18335;51.486;7.562;2023-01-28T09:29:04;101598.16;;;1.04;100.00
31761;BME280;18335;51.486;7.562;2023-01-28T09:31:30;101599.59;;;0.93;100.00
31761;BME280;18335;51.486;7.562;2023-01-28T09:33:57;101603.63;;;1.22;100.00
31761;BME280;18335;51.486;7.562;2023-01-28T09:36:24;101610.28;;;1.32;100.00
31761;BME280;18335;51.486;7.562;2023-01-28T09:38:51;101601.75;;;1.41;100.00
31761;BME280;18335;51.486;7.562;2023-01-28T09:41:24;101615.44;;;1.36;100.00
31761;BME280;18335;51.486;7.562;2023-01-28T09:44:18;101609.09;;;1.56;100.00
31761;BME280;18335;51.486;7.562;2023-01-28T09:46:48;101620.97;;;1.52;100.00
31761;BME280;18335;51.486;7.562;2023-01-28T09:49:18;101620.50;;;1.61;100.00
31761;BME280;18335;51.486;7.562;2023-01-28T09:51:51;101620.00;;;1.53;100.00
31761;BME280;18335;51.486;7.562;2023-01-28T09:54:26;101622.50;;;1.39;100.00
31761;BME280;18335;51.486;7.562;2023-01-28T09:56:59;101625.75;;;1.27;100.00
31761;BME280;18335;51.486;7.562;2023-01-28T09:59:32;101626.63;;;1.27;100.00
31761;BME280;18335;51.486;7.562;2023-01-28T10:02:03;101625.03;;;1.42;100.00
31761;BME280;18335;51.486;7.562;2023-01-28T10:04:48;101624.88;;;1.45;100.00
31761;BME280;18335;51.486;7.562;2023-01-28T10:07:26;101634.91;;;1.23;100.00
31761;BME280;18335;51.486;7.562;2023-01-28T10:09:58;101630.66;;;1.19;100.00
31761;BME280;18335;51.486;7.562;2023-01-28T10:12:45;101631.94;;;1.10;100.00
31761;BME280;18335;51.486;7.562;2023-01-28T10:15:19;101625.75;;;1.27;100.00
31761;BME280;18335;51.486;7.562;2023-01-28T10:17:51;101617.63;;;1.28;100.00
31761;BME280;18335;51.486;7.562;2023-01-28T10:20:22;101614.16;;;1.07;100.00
31761;BME280;18335;51.486;7.562;2023-01-28T10:23:02;101613.41;;;1.04;100.00
31761;BME280;18335;51.486;7.562;2023-01-28T10:25:31;101614.44;;;1.01;100.00
31761;BME280;18335;51.486;7.562;2023-01-28T10:28:00;101605.34;;;1.04;100.00
31761;BME280;18335;51.486;7.562;2023-01-28T10:30:31;101607.47;;;0.97;100.00
31761;BME280;18335;51.486;7.562;2023-01-28T10:33:02;101603.25;;;1.10;100.00
31761;BME280;18335;51.486;7.562;2023-01-28T10:35:34;101596.84;;;1.32;100.00
31761;BME280;18335;51.486;7.562;2023-01-28T10:38:05;101592.13;;;1.37;100.00
31761;BME280;18335;51.486;7.562;2023-01-28T10:40:33;101588.03;;;1.47;100.00
31761;BME280;18335;51.486;7.562;2023-01-28T10:43:01;101590.84;;;1.62;100.00
31761;BME280;18335;51.486;7.562;2023-01-28T10:45:31;101599.75;;;1.46;100.00
31761;BME280;18335;51.486;7.562;2023-01-28T10:48:06;101605.56;;;1.37;100.00
31761;BME280;18335;51.486;7.562;2023-01-28T10:50:34;101608.00;;;1.60;100.00
31761;BME280;18335;51.486;7.562;2023-01-28T10:53:03;101613.69;;;1.35;100.00
31761;BME280;18335;51.486;7.562;2023-01-28T10:55:35;101610.13;;;1.35;100.00
31761;BME280;18335;51.486;7.562;2023-01-28T10:58:17;101612.53;;;1.41;100.00
31761;BME280;18335;51.486;7.562;2023-01-28T11:00:51;101619.88;;;1.19;100.00
31761;BME280;18335;51.486;7.562;2023-01-28T11:03:19;101610.81;;;1.21;100.00
31761;BME280;18335;51.486;7.562;2023-01-28T11:05:49;101624.00;;;1.26;100.00
31761;BME280;18335;51.486;7.562;2023-01-28T11:08:18;101623.72;;;1.50;100.00
31761;BME280;18335;51.486;7.562;2023-01-28T11:10:46;101633.28;;;1.56;100.00
31761;BME280;18335;51.486;7.562;2023-01-28T11:13:19;101630.69;;;1.36;100.00
31761;BME280;18335;51.486;7.562;2023-01-28T11:15:47;101631.72;;;1.15;100.00
31761;BME280;18335;51.486;7.562;2023-01-28T11:18:17;101635.50;;;1.10;100.00
31761;BME280;18335;51.486;7.562;2023-01-28T11:20:50;101647.69;;;1.18;100.00
31761;BME280;18335;51.486;7.562;2023-01-28T11:23:21;101637.66;;;1.02;100.00
31761;BME280;18335;51.486;7.562;2023-01-28T11:25:58;101640.28;;;1.23;100.00
31761;BME280;18335;51.486;7.562;2023-01-28T11:28:27;101643.66;;;1.28;100.00
31761;BME280;18335;51.486;7.562;2023-01-28T11:30:55;101631.56;;;1.55;100.00
31761;BME280;18335;51.486;7.562;2023-01-28T11:33:32;101635.25;;;1.52;100.00
31761;BME280;18335;51.486;7.562;2023-01-28T11:36:10;101639.25;;;1.44;100.00
31761;BME280;18335;51.486;7.562;2023-01-28T11:38:47;101638.41;;;1.43;100.00
31761;BME280;18335;51.486;7.562;2023-01-28T11:41:14;101627.59;;;1.81;100.00
31761;BME280;18335;51.486;7.562;2023-01-28T11:43:43;101602.31;;;1.66;100.00
31761;BME280;18335;51.486;7.562;2023-01-28T11:46:23;101609.19;;;1.36;100.00
31761;BME280;18335;51.486;7.562;2023-01-28T11:49:03;101614.28;;;1.42;100.00
31761;BME280;18335;51.486;7.562;2023-01-28T11:51:39;101615.72;;;1.49;100.00
31761;BME280;18335;51.486;7.562;2023-01-28T11:54:24;101600.69;;;1.45;100.00
31761;BME280;18335;51.486;7.562;2023-01-28T11:57:03;101601.84;;;1.39;100.00
31761;BME280;18335;51.486;7.562;2023-01-28T11:59:52;101597.41;;;1.38;100.00
31761;BME280;18335;51.486;7.562;2023-01-28T12:02:36;101601.91;;;1.38;100.00
31761;BME280;18335;51.486;7.562;2023-01-28T12:05:18;101609.47;;;1.30;100.00
31761;BME280;18335;51.486;7.562;2023-01-28T12:07:55;101603.66;;;1.20;100.00
31761;BME280;18335;51.486;7.562;2023-01-28T12:10:28;101610.50;;;1.27;100.00
31761;BME280;18335;51.486;7.562;2023-01-28T12:13:07;101590.56;;;1.50;100.00
31761;BME280;18335;51.486;7.562;2023-01-28T12:15:57;101595.94;;;1.50;100.00
31761;BME280;18335;51.486;7.562;2023-01-28T12:21:45;101593.50;;;1.27;100.00
31761;BME280;18335;51.486;7.562;2023-01-28T12:24:25;101576.31;;;1.48;100.00
31761;BME280;18335;51.486;7.562;2023-01-28T12:27:02;101568.91;;;1.53;100.00
31761;BME280;18335;51.486;7.562;2023-01-28T12:29:37;101572.56;;;1.69;100.00
31761;BME280;18335;51.486;7.562;2023-01-28T12:32:27;101562.16;;;1.44;100.00
31761;BME280;18335;51.486;7.562;2023-01-28T12:35:33;101549.28;;;1.68;100.00
31761;BME280;18335;51.486;7.562;2023-01-28T12:38:09;101547.28;;;1.73;100.00
31761;BME280;18335;51.486;7.562;2023-01-28T12:40:54;101539.56;;;1.83;100.00
31761;BME280;18335;51.486;7.562;2023-01-28T12:43:32;101540.91;;;1.74;100.00
31761;BME280;18335;51.486;7.562;2023-01-28T12:46:09;101553.47;;;1.56;100.00
31761;BME280;18335;51.486;7.562;2023-01-28T12:48:42;101530.00;;;1.60;100.00
31761;BME280;18335;51.486;7.562;2023-01-28T12:51:14;101508.78;;;1.88;100.00
31761;BME280;18335;51.486;7.562;2023-01-28T12:53:46;101494.84;;;1.80;100.00
31761;BME280;18335;51.486;7.562;2023-01-28T12:56:18;101490.59;;;1.76;100.00
31761;BME280;18335;51.486;7.562;2023-01-28T12:58:51;101465.81;;;1.87;100.00
31761;BME280;18335;51.486;7.562;2023-01-28T13:01:23;101452.94;;;1.76;100.00
31761;BME280;18335;51.486;7.562;2023-01-28T13:03:56;101460.19;;;1.91;100.00
31761;BME280;18335;51.486;7.562;2023-01-28T13:06:32;101445.00;;;1.90;100.00
31761;BME280;18335;51.486;7.562;2023-01-28T13:09:10;101440.97;;;1.82;100.00
31761;BME280;18335;51.486;7.562;2023-01-28T13:11:40;101442.53;;;1.86;100.00
31761;BME280;18335;51.486;7.562;2023-01-28T13:14:10;101437.09;;;1.87;100.00
31761;BME280;18335;51.486;7.562;2023-01-28T13:16:37;101463.88;;;1.73;100.00